createdAt,value
2019-03-16T00:01:35.391Z,64.28
2019-03-16T00:04:04.622Z,63.96
2019-03-16T00:06:36.080Z,63.98
2019-03-16T00:09:07.868Z,64.09
2019-03-16T00:11:37.416Z,63.96
2019-03-16T00:14:06.655Z,63.71
2019-03-16T00:16:35.927Z,63.75
2019-03-16T00:19:05.519Z,63.83
2019-03-16T00:21:34.851Z,63.95
2019-03-16T00:24:04.081Z,64.03
2019-03-16T00:26:33.430Z,64.10
2019-03-16T00:29:02.753Z,64.06
2019-03-16T00:31:32.027Z,64.26
2019-03-16T00:34:01.296Z,64.13
2019-03-16T00:36:30.635Z,64.01
2019-03-16T00:39:00.101Z,64.08
2019-03-16T00:41:29.428Z,64.33
2019-03-16T00:43:58.711Z,64.49
2019-03-16T00:46:27.928Z,64.75
2019-03-16T00:48:57.149Z,64.91
2019-03-16T00:51:26.375Z,65.18
2019-03-16T00:53:55.598Z,65.39
2019-03-16T00:56:24.900Z,65.66
2019-03-16T00:58:54.231Z,65.79
2019-03-16T01:01:23.498Z,66.07
2019-03-16T01:03:52.926Z,66.26
2019-03-16T01:06:22.199Z,66.40
2019-03-16T01:08:51.530Z,66.69
2019-03-16T01:11:20.797Z,66.78
2019-03-16T01:13:50.135Z,66.81
2019-03-16T01:16:19.405Z,66.73
2019-03-16T01:18:48.628Z,67.00
2019-03-16T01:21:17.856Z,67.01
2019-03-16T01:23:47.095Z,67.12
2019-03-16T01:26:16.417Z,67.40
2019-03-16T01:28:45.747Z,67.55
2019-03-16T01:31:14.963Z,67.76
2019-03-16T01:33:44.334Z,67.66
2019-03-16T01:36:13.577Z,67.62
2019-03-16T01:38:42.806Z,67.91
2019-03-16T01:41:12.059Z,67.94
2019-03-16T01:43:41.299Z,68.06
2019-03-16T01:46:10.546Z,68.15
2019-03-16T01:48:39.763Z,68.37
2019-03-16T01:51:08.969Z,68.39
2019-03-16T01:53:38.200Z,68.45
2019-03-16T01:56:07.566Z,68.56
2019-03-16T01:58:36.936Z,68.82
2019-03-16T02:01:06.204Z,68.77
2019-03-16T02:03:35.399Z,68.69
2019-03-16T02:06:04.584Z,68.73
2019-03-16T02:08:33.794Z,68.74
2019-03-16T02:11:03.102Z,68.55
2019-03-16T02:13:32.418Z,68.27
2019-03-16T02:16:10.933Z,67.84
2019-03-16T02:18:31.034Z,67.96
2019-03-16T02:21:00.349Z,67.86
2019-03-16T02:23:29.600Z,67.83
2019-03-16T02:25:58.824Z,67.83
2019-03-16T02:28:28.054Z,67.77
2019-03-16T02:30:57.325Z,68.05
2019-03-16T02:33:26.547Z,68.06
2019-03-16T02:35:55.914Z,68.11
2019-03-16T02:38:25.195Z,68.19
2019-03-16T02:40:54.432Z,68.20
2019-03-16T02:43:23.753Z,68.03
2019-03-16T02:45:53.020Z,68.26
2019-03-16T02:48:22.210Z,68.06
2019-03-16T02:50:51.392Z,67.81
2019-03-16T02:53:20.649Z,67.93
2019-03-16T02:55:49.844Z,67.91
2019-03-16T02:58:19.065Z,67.96
2019-03-16T03:00:48.270Z,67.49
2019-03-16T03:03:29.062Z,67.34
2019-03-16T03:05:46.701Z,67.18
2019-03-16T03:08:16.021Z,66.91
2019-03-16T03:10:45.246Z,66.67
2019-03-16T03:13:14.557Z,66.89
2019-03-16T03:15:43.696Z,66.55
2019-03-16T03:18:12.988Z,66.15
2019-03-16T03:20:42.213Z,66.19
2019-03-16T03:23:11.552Z,66.11
2019-03-16T03:25:40.936Z,65.89
2019-03-16T03:28:10.226Z,65.70
2019-03-16T03:30:39.506Z,65.52
2019-03-16T03:33:08.734Z,65.32
2019-03-16T03:35:38.133Z,65.11
2019-03-16T03:38:07.324Z,64.44
2019-03-16T03:40:36.533Z,64.28
2019-03-16T03:43:05.807Z,63.93
2019-03-16T03:45:35.016Z,63.50
2019-03-16T03:48:04.299Z,63.37
2019-03-16T03:50:33.525Z,63.35
2019-03-16T03:53:02.806Z,63.42
2019-03-16T03:55:32.170Z,62.92
2019-03-16T03:58:01.390Z,62.77
2019-03-16T04:00:30.613Z,62.68
2019-03-16T04:02:59.908Z,62.54
2019-03-16T04:05:29.226Z,62.67
2019-03-16T04:07:58.452Z,62.68
2019-03-16T04:10:27.728Z,62.33
2019-03-16T04:12:56.932Z,62.30
2019-03-16T04:15:26.167Z,62.22
2019-03-16T04:17:55.400Z,62.49
2019-03-16T04:20:24.622Z,62.62
2019-03-16T04:22:53.911Z,63.28
2019-03-16T04:25:23.136Z,63.51
2019-03-16T04:27:52.401Z,63.65
2019-03-16T04:30:21.730Z,63.73
2019-03-16T04:32:50.901Z,64.25
2019-03-16T04:35:20.283Z,64.70
2019-03-16T04:37:49.499Z,64.82
2019-03-16T04:40:18.822Z,65.23
2019-03-16T04:42:48.102Z,65.72
2019-03-16T04:45:17.343Z,66.00
2019-03-16T04:47:46.534Z,66.29
2019-03-16T04:50:15.757Z,66.43
2019-03-16T04:52:45.006Z,66.73
2019-03-16T04:55:14.256Z,66.72
2019-03-16T04:57:43.508Z,66.75
2019-03-16T05:00:12.837Z,67.02
2019-03-16T05:02:42.070Z,67.15
2019-03-16T05:05:11.304Z,67.02
2019-03-16T05:07:40.506Z,66.80
2019-03-16T05:10:09.770Z,66.84
2019-03-16T05:12:38.993Z,66.76
2019-03-16T05:15:08.282Z,66.73
2019-03-16T05:17:37.494Z,66.46
2019-03-16T05:20:07.296Z,66.65
2019-03-16T05:22:36.506Z,66.62
2019-03-16T05:25:06.324Z,66.65
2019-03-16T05:27:35.618Z,66.76
2019-03-16T05:30:05.333Z,66.66
2019-03-16T05:32:34.562Z,66.41
2019-03-16T05:35:03.762Z,66.30
2019-03-16T05:37:33.023Z,66.27
2019-03-16T05:40:02.256Z,66.07
2019-03-16T05:42:31.465Z,66.24
2019-03-16T05:45:00.760Z,66.02
2019-03-16T05:47:30.170Z,65.96
2019-03-16T05:49:59.397Z,65.81
2019-03-16T05:52:28.599Z,65.59
2019-03-16T05:54:57.967Z,65.43
2019-03-16T05:57:27.178Z,65.28
2019-03-16T05:59:56.424Z,65.30
2019-03-16T06:02:25.653Z,65.03
2019-03-16T06:04:54.838Z,65.04
2019-03-16T06:07:24.165Z,65.00
2019-03-16T06:09:53.428Z,64.74
2019-03-16T06:12:22.704Z,64.75
2019-03-16T06:14:51.928Z,64.81
2019-03-16T06:17:21.129Z,64.49
2019-03-16T06:19:50.342Z,63.97
2019-03-16T06:22:19.547Z,63.93
2019-03-16T06:24:48.760Z,63.57
2019-03-16T06:27:17.992Z,63.13
2019-03-16T06:29:47.334Z,61.52
2019-03-16T06:32:16.528Z,61.17
2019-03-16T06:34:45.742Z,60.37
2019-03-16T06:37:14.996Z,59.63
2019-03-16T06:39:44.222Z,59.22
2019-03-16T06:42:13.463Z,59.23
2019-03-16T06:44:42.707Z,58.60
2019-03-16T06:47:11.974Z,59.50
2019-03-16T06:49:41.224Z,60.03
2019-03-16T06:52:10.500Z,61.56
2019-03-16T06:54:39.740Z,61.89
2019-03-16T06:57:09.050Z,63.12
2019-03-16T06:59:38.338Z,64.19
2019-03-16T07:02:07.574Z,65.54
2019-03-16T07:04:36.937Z,66.13
2019-03-16T07:07:07.388Z,67.18
2019-03-16T07:09:36.592Z,68.05
2019-03-16T07:12:05.820Z,68.70
2019-03-16T07:14:35.060Z,69.71
2019-03-16T07:17:04.312Z,70.72
2019-03-16T07:19:34.007Z,71.34
2019-03-16T07:22:02.880Z,72.17
2019-03-16T07:24:32.129Z,73.22
2019-03-16T07:27:01.380Z,74.01
2019-03-16T07:29:30.621Z,74.64
2019-03-16T07:31:59.900Z,75.48
2019-03-16T07:34:29.150Z,75.49
2019-03-16T07:36:58.440Z,76.09
2019-03-16T07:39:27.690Z,77.17
2019-03-16T07:41:56.901Z,77.83
2019-03-16T07:44:26.126Z,78.32
2019-03-16T07:46:55.395Z,78.13
2019-03-16T07:49:24.612Z,78.44
2019-03-16T07:51:53.874Z,78.47
2019-03-16T07:54:23.109Z,78.98
2019-03-16T07:56:52.329Z,79.67
2019-03-16T07:59:21.553Z,79.82
2019-03-16T08:01:50.880Z,79.88
2019-03-16T08:04:20.125Z,80.32
2019-03-16T08:06:49.362Z,80.36
2019-03-16T08:09:18.794Z,80.21
2019-03-16T08:11:47.903Z,80.31
2019-03-16T08:14:17.162Z,80.41
2019-03-16T08:16:46.693Z,80.46
2019-03-16T08:19:15.962Z,80.71
2019-03-16T08:21:45.271Z,80.81
2019-03-16T08:24:14.494Z,80.26
2019-03-16T08:26:43.886Z,80.04
2019-03-16T08:29:13.111Z,80.59
2019-03-16T08:31:42.381Z,80.35
2019-03-16T08:34:11.608Z,80.81
2019-03-16T08:36:40.838Z,81.08
2019-03-16T08:39:10.184Z,81.01
2019-03-16T08:41:39.463Z,80.98
2019-03-16T08:44:08.782Z,81.36
2019-03-16T08:46:38.060Z,82.42
2019-03-16T08:49:07.286Z,81.33
2019-03-16T08:51:36.556Z,84.66
2019-03-16T08:54:05.799Z,82.05
2019-03-16T08:56:35.063Z,79.36
2019-03-16T08:59:04.307Z,79.04
2019-03-16T09:01:33.532Z,79.52
2019-03-16T09:04:02.770Z,79.63
2019-03-16T09:06:32.010Z,80.20
2019-03-16T09:09:01.280Z,80.64
2019-03-16T09:11:30.705Z,81.14
2019-03-16T09:13:59.916Z,81.86
2019-03-16T09:16:29.187Z,82.13
2019-03-16T09:18:58.398Z,82.91
2019-03-16T09:21:27.679Z,82.97
2019-03-16T09:23:56.890Z,82.96
2019-03-16T09:26:26.122Z,83.82
2019-03-16T09:28:59.924Z,83.56
2019-03-16T09:31:24.580Z,83.59
2019-03-16T09:33:53.895Z,83.34
2019-03-16T09:36:23.164Z,83.54
2019-03-16T09:38:52.402Z,83.76
2019-03-16T09:41:21.587Z,83.63
2019-03-16T09:43:50.826Z,83.80
2019-03-16T09:46:20.166Z,84.22
2019-03-16T09:48:49.382Z,83.75
2019-03-16T09:51:18.682Z,83.56
2019-03-16T09:53:47.881Z,84.44
2019-03-16T09:56:17.110Z,84.14
2019-03-16T09:58:46.388Z,85.01
2019-03-16T10:01:15.611Z,85.02
2019-03-16T10:03:44.809Z,86.08
2019-03-16T10:06:14.051Z,86.58
2019-03-16T10:08:43.264Z,86.86
2019-03-16T10:11:12.450Z,87.40
2019-03-16T10:13:41.725Z,87.53
2019-03-16T10:16:10.950Z,88.17
2019-03-16T10:18:40.184Z,87.84
2019-03-16T10:21:09.358Z,86.75
2019-03-16T10:23:38.627Z,87.55
2019-03-16T10:26:07.826Z,87.88
2019-03-16T10:28:43.709Z,87.31
2019-03-16T10:31:06.274Z,87.78
2019-03-16T10:33:35.494Z,88.54
2019-03-16T10:36:04.726Z,87.21
2019-03-16T10:38:33.973Z,88.07
2019-03-16T10:41:03.188Z,87.62
2019-03-16T10:43:32.420Z,88.11
2019-03-16T10:46:01.710Z,87.50
2019-03-16T10:48:30.918Z,88.37
2019-03-16T10:51:00.191Z,88.52
2019-03-16T10:53:29.432Z,88.43
2019-03-16T10:55:58.766Z,88.23
2019-03-16T10:58:28.022Z,87.99
2019-03-16T11:00:57.234Z,88.06
2019-03-16T11:03:26.504Z,88.61
2019-03-16T11:05:55.822Z,88.67
2019-03-16T11:08:25.128Z,88.76
2019-03-16T11:10:54.346Z,88.88
2019-03-16T11:13:23.548Z,89.01
2019-03-16T11:15:52.772Z,89.12
2019-03-16T11:18:21.996Z,89.16
2019-03-16T11:20:51.199Z,89.04
2019-03-16T11:23:20.414Z,90.97
2019-03-16T11:25:49.649Z,91.11
2019-03-16T11:28:18.912Z,90.96
2019-03-16T11:30:48.220Z,90.07
2019-03-16T11:33:17.450Z,88.21
2019-03-16T11:35:46.694Z,88.16
2019-03-16T11:38:15.932Z,88.17
2019-03-16T11:40:45.202Z,88.78
2019-03-16T11:43:14.516Z,89.03
2019-03-16T11:45:44.009Z,89.42
2019-03-16T11:48:13.196Z,89.68
2019-03-16T11:50:42.469Z,89.87
2019-03-16T11:53:11.710Z,90.20
2019-03-16T11:55:41.009Z,90.35
2019-03-16T11:58:10.571Z,90.62
2019-03-16T12:00:39.822Z,90.93
2019-03-16T12:03:09.075Z,91.04
2019-03-16T12:05:38.408Z,91.22
2019-03-16T12:08:07.726Z,91.34
2019-03-16T12:10:37.105Z,91.36
2019-03-16T12:13:16.660Z,91.46
2019-03-16T12:15:35.831Z,91.45
2019-03-16T12:18:05.110Z,91.58
2019-03-16T12:20:34.411Z,91.69
2019-03-16T12:23:03.591Z,91.69
2019-03-16T12:25:32.867Z,91.97
2019-03-16T12:28:02.120Z,92.13
2019-03-16T12:30:31.415Z,92.31
2019-03-16T12:33:00.636Z,92.31
2019-03-16T12:35:29.906Z,92.51
2019-03-16T12:37:59.134Z,92.68
2019-03-16T12:40:28.403Z,92.77
2019-03-16T12:42:57.841Z,92.83
2019-03-16T12:45:27.107Z,92.84
2019-03-16T12:47:56.349Z,92.67
2019-03-16T12:50:25.681Z,92.19
2019-03-16T12:52:54.919Z,92.19
2019-03-16T12:55:26.911Z,91.57
2019-03-16T12:57:56.160Z,91.17
2019-03-16T13:00:25.418Z,90.67
2019-03-16T13:02:54.680Z,90.22
2019-03-16T13:05:23.923Z,90.22
2019-03-16T13:07:53.152Z,89.90
2019-03-16T13:10:25.538Z,89.98
2019-03-16T13:12:51.613Z,89.06
2019-03-16T13:15:20.915Z,89.06
2019-03-16T13:17:50.285Z,88.92
2019-03-16T13:20:19.488Z,88.22
2019-03-16T13:22:49.061Z,88.41
2019-03-16T13:25:19.241Z,87.48
2019-03-16T13:27:48.729Z,87.61
2019-03-16T13:30:17.989Z,87.61
2019-03-16T13:32:47.184Z,86.84
2019-03-16T13:35:16.430Z,87.05
2019-03-16T13:37:45.675Z,87.04
2019-03-16T13:40:14.893Z,86.26
2019-03-16T13:42:44.138Z,86.79
2019-03-16T13:45:13.390Z,86.55
2019-03-16T13:47:42.633Z,85.79
2019-03-16T13:50:12.216Z,85.58
2019-03-16T13:52:41.601Z,85.68
2019-03-16T13:55:10.828Z,85.77
2019-03-16T13:57:40.085Z,85.59
2019-03-16T14:00:12.312Z,85.34
2019-03-16T14:02:40.267Z,84.51
2019-03-16T14:05:09.529Z,84.80
2019-03-16T14:07:38.864Z,84.17
2019-03-16T14:10:11.070Z,84.26
2019-03-16T14:12:40.335Z,84.09
2019-03-16T14:15:09.613Z,84.32
2019-03-16T14:17:41.618Z,83.41
2019-03-16T14:20:12.672Z,83.41
2019-03-16T14:22:43.792Z,83.14
2019-03-16T14:25:13.162Z,83.14
2019-03-16T14:27:42.337Z,83.49
2019-03-16T14:30:25.617Z,83.77
2019-03-16T14:32:43.042Z,83.77
2019-03-16T14:35:12.340Z,83.69
2019-03-16T14:37:41.637Z,82.79
2019-03-16T14:40:13.480Z,82.50
2019-03-16T14:42:42.905Z,82.53
2019-03-16T14:45:12.214Z,83.21
2019-03-16T14:47:41.629Z,82.83
2019-03-16T14:50:16.760Z,82.48
2019-03-16T14:52:45.663Z,81.60
2019-03-16T14:55:14.931Z,79.36
2019-03-16T14:57:44.224Z,79.36
2019-03-16T15:00:14.124Z,77.48
2019-03-16T15:02:45.925Z,76.05
2019-03-16T15:05:12.619Z,75.33
2019-03-16T15:07:42.107Z,74.48
2019-03-16T15:10:13.347Z,74.39
2019-03-16T15:12:43.009Z,75.50
2019-03-16T15:15:13.211Z,75.64
2019-03-16T15:17:42.661Z,76.55
2019-03-16T15:20:11.901Z,76.37
2019-03-16T15:22:41.156Z,75.76
2019-03-16T15:25:11.386Z,75.76
2019-03-16T15:27:39.757Z,75.07
2019-03-16T15:30:11.546Z,75.07
2019-03-16T15:32:40.790Z,74.89
2019-03-16T15:35:10.034Z,75.07
2019-03-16T15:37:42.335Z,74.50
2019-03-16T15:40:14.015Z,74.20
2019-03-16T15:42:43.265Z,74.69
2019-03-16T15:45:14.624Z,74.06
2019-03-16T15:47:43.966Z,73.76
2019-03-16T15:50:13.455Z,73.62
2019-03-16T15:52:42.758Z,73.67
2019-03-16T15:55:11.993Z,74.41
2019-03-16T15:57:42.733Z,74.35
2019-03-16T16:00:11.388Z,75.29
2019-03-16T16:02:40.618Z,75.29
2019-03-16T16:05:09.970Z,75.47
2019-03-16T16:07:39.596Z,75.52
2019-03-16T16:10:11.095Z,75.65
2019-03-16T16:12:40.354Z,75.62
2019-03-16T16:15:09.676Z,75.87
2019-03-16T16:17:38.976Z,75.81
2019-03-16T16:20:08.788Z,76.11
2019-03-16T16:22:38.036Z,76.51
2019-03-16T16:25:08.135Z,77.12
2019-03-16T16:27:37.411Z,77.48
2019-03-16T16:30:07.782Z,77.48
2019-03-16T16:32:37.052Z,77.25
2019-03-16T16:35:06.335Z,77.31
2019-03-16T16:37:35.592Z,77.07
2019-03-16T16:40:05.394Z,77.07
2019-03-16T16:42:34.700Z,76.29
2019-03-16T16:45:03.993Z,76.29
2019-03-16T16:47:33.226Z,75.09
2019-03-16T16:50:02.467Z,74.91
2019-03-16T16:52:31.688Z,74.72
2019-03-16T16:55:00.906Z,74.45
2019-03-16T16:57:30.119Z,73.22
2019-03-16T16:59:59.317Z,71.69
2019-03-16T17:02:28.834Z,71.43
2019-03-16T17:04:58.170Z,70.55
2019-03-16T17:07:27.348Z,70.55
2019-03-16T17:09:56.874Z,70.01
2019-03-16T17:12:26.256Z,69.74
2019-03-16T17:14:55.660Z,69.62
2019-03-16T17:17:34.706Z,69.48
2019-03-16T17:19:54.204Z,69.24
2019-03-16T17:22:23.503Z,69.47
2019-03-16T17:24:52.774Z,69.26
2019-03-16T17:27:21.985Z,69.35
2019-03-16T17:29:51.233Z,69.15
2019-03-16T17:32:20.576Z,68.62
2019-03-16T17:34:49.832Z,68.45
2019-03-16T17:37:19.266Z,68.01
2019-03-16T17:39:48.440Z,68.48
2019-03-16T17:42:17.662Z,67.96
2019-03-16T17:44:46.855Z,67.16
2019-03-16T17:47:16.104Z,67.40
2019-03-16T17:49:45.522Z,67.40
2019-03-16T17:52:14.778Z,67.09
2019-03-16T17:54:44.078Z,66.12
2019-03-16T17:57:13.404Z,66.12
2019-03-16T17:59:42.726Z,66.37
2019-03-16T18:02:11.974Z,66.85
2019-03-16T18:04:41.313Z,65.83
2019-03-16T18:07:10.525Z,65.62
2019-03-16T18:09:39.826Z,65.04
2019-03-16T18:12:09.137Z,64.84
2019-03-16T18:14:38.441Z,64.60
2019-03-16T18:17:07.675Z,64.57
2019-03-16T18:19:37.083Z,64.66
2019-03-16T18:22:06.312Z,64.50
2019-03-16T18:24:35.682Z,64.57
2019-03-16T18:27:04.930Z,64.89
2019-03-16T18:29:34.244Z,64.89
2019-03-16T18:32:08.184Z,64.81
2019-03-16T18:34:32.776Z,65.05
2019-03-16T18:37:02.047Z,65.34
2019-03-16T18:39:31.393Z,65.22
2019-03-16T18:42:00.667Z,65.93
2019-03-16T18:44:30.038Z,66.33
2019-03-16T18:46:59.323Z,66.08
2019-03-16T18:49:28.688Z,65.94
2019-03-16T18:51:58.144Z,65.97
2019-03-16T18:54:27.397Z,65.78
2019-03-16T18:56:56.660Z,65.35
2019-03-16T18:59:25.876Z,65.11
2019-03-16T19:01:55.150Z,64.87
2019-03-16T19:04:24.378Z,64.98
2019-03-16T19:06:53.744Z,65.00
2019-03-16T19:09:22.998Z,65.03
2019-03-16T19:11:52.228Z,65.07
2019-03-16T19:14:21.535Z,65.44
2019-03-16T19:16:50.904Z,65.12
2019-03-16T19:19:20.255Z,64.69
2019-03-16T19:21:49.489Z,64.83
2019-03-16T19:24:18.840Z,65.30
2019-03-16T19:26:48.090Z,64.79
2019-03-16T19:29:17.340Z,64.70
2019-03-16T19:31:46.570Z,64.62
2019-03-16T19:34:16.149Z,64.65
2019-03-16T19:36:45.472Z,64.69
2019-03-16T19:39:14.704Z,64.82
2019-03-16T19:41:44.064Z,64.66
2019-03-16T19:44:13.181Z,64.69
2019-03-16T19:46:42.477Z,64.85
2019-03-16T19:49:11.954Z,64.78
2019-03-16T19:51:41.230Z,64.45
2019-03-16T19:54:10.453Z,64.46
2019-03-16T19:56:39.707Z,64.43
2019-03-16T19:59:09.118Z,63.94
2019-03-16T20:01:38.372Z,63.71
2019-03-16T20:04:07.626Z,64.03
2019-03-16T20:06:36.853Z,64.06
2019-03-16T20:09:07.610Z,64.18
2019-03-16T20:11:36.914Z,63.52
2019-03-16T20:14:06.161Z,62.77
2019-03-16T20:16:35.387Z,63.23
2019-03-16T20:19:04.689Z,63.07
2019-03-16T20:21:34.008Z,62.74
2019-03-16T20:24:03.314Z,62.51
2019-03-16T20:26:32.766Z,62.39
2019-03-16T20:29:02.094Z,62.43
2019-03-16T20:31:31.549Z,61.89
2019-03-16T20:34:00.792Z,61.88
2019-03-16T20:36:30.160Z,61.66
2019-03-16T20:38:59.387Z,61.66
2019-03-16T20:41:36.125Z,61.79
2019-03-16T20:43:58.034Z,62.13
2019-03-16T20:46:27.293Z,61.27
2019-03-16T20:48:56.528Z,61.27
2019-03-16T20:51:25.876Z,61.67
2019-03-16T20:53:55.106Z,61.51
2019-03-16T20:56:24.328Z,61.92
2019-03-16T20:58:53.658Z,61.62
2019-03-16T21:01:23.119Z,61.63
2019-03-16T21:03:52.324Z,61.64
2019-03-16T21:06:21.580Z,62.09
2019-03-16T21:09:02.665Z,61.66
2019-03-16T21:11:20.104Z,61.83
2019-03-16T21:13:49.299Z,62.39
2019-03-16T21:16:18.537Z,62.58
2019-03-16T21:18:48.080Z,62.48
2019-03-16T21:21:17.004Z,62.73
2019-03-16T21:23:46.235Z,62.39
2019-03-16T21:26:15.486Z,62.45
2019-03-16T21:28:44.719Z,62.90
2019-03-16T21:31:13.974Z,63.08
2019-03-16T21:33:45.748Z,63.00
2019-03-16T21:36:12.725Z,63.59
2019-03-16T21:38:43.851Z,63.59
2019-03-16T21:41:11.216Z,63.18
2019-03-16T21:43:40.470Z,63.41
2019-03-16T21:46:09.684Z,63.36
2019-03-16T21:48:39.082Z,63.42
2019-03-16T21:51:08.254Z,63.30
2019-03-16T21:53:37.542Z,63.24
2019-03-16T21:56:06.792Z,63.25
2019-03-16T21:58:38.497Z,63.33
2019-03-16T22:01:07.777Z,63.28
2019-03-16T22:03:41.868Z,63.67
2019-03-16T22:06:06.307Z,63.67
2019-03-16T22:08:35.559Z,63.81
2019-03-16T22:11:05.533Z,63.08
2019-03-16T22:13:34.091Z,63.08
2019-03-16T22:16:03.359Z,63.19
2019-03-16T22:18:32.609Z,63.13
2019-03-16T22:21:01.936Z,63.08
2019-03-16T22:23:31.152Z,63.12
2019-03-16T22:26:00.452Z,62.98
2019-03-16T22:28:29.691Z,62.94
2019-03-16T22:30:58.913Z,62.65
2019-03-16T22:33:28.160Z,63.15
2019-03-16T22:35:57.420Z,62.58
2019-03-16T22:38:26.769Z,62.58
2019-03-16T22:40:56.086Z,62.87
2019-03-16T22:43:25.424Z,63.06
2019-03-16T22:45:54.636Z,63.06
2019-03-16T22:48:23.844Z,63.09
2019-03-16T22:50:53.140Z,63.02
2019-03-16T22:53:22.497Z,62.80
2019-03-16T22:55:51.687Z,62.91
2019-03-16T22:58:20.927Z,63.02
2019-03-16T23:00:50.432Z,62.88
2019-03-16T23:03:19.716Z,62.89
2019-03-16T23:05:49.019Z,62.99
2019-03-16T23:08:18.363Z,62.85
2019-03-16T23:10:47.707Z,63.03
2019-03-16T23:13:17.008Z,63.03
2019-03-16T23:15:46.237Z,63.02
2019-03-16T23:18:16.624Z,62.85
2019-03-16T23:20:45.837Z,62.88
2019-03-16T23:23:15.198Z,62.53
2019-03-16T23:25:44.485Z,62.55
2019-03-16T23:28:13.809Z,62.70
2019-03-16T23:30:43.107Z,62.44
2019-03-16T23:33:12.373Z,62.43
2019-03-16T23:35:41.663Z,62.35
2019-03-16T23:38:10.927Z,62.72
2019-03-16T23:40:40.241Z,62.76
2019-03-16T23:43:09.465Z,62.90
2019-03-16T23:45:38.723Z,63.07
2019-03-16T23:48:07.996Z,62.88
2019-03-16T23:50:37.327Z,62.76
2019-03-16T23:53:06.569Z,62.62
2019-03-16T23:55:35.795Z,62.51
2019-03-16T23:58:05.011Z,62.36
